Aviation Digital Data Service (ADDS)

Output produced by TAFs form (0646 UTC 23 April 2014)
found at http://aviationweather.gov/adds/tafs/
 
KMAF 230523Z 2306/2406 14014G20KT P6SM SKC 
     FM231000 17010KT P6SM SCT130 BKN250 WS020/17035KT 
     FM231400 18018G26KT P6SM FEW130 BKN250 
     FM231800 21017G25KT P6SM SCT070 SCT250